Terminal Aerodrome Forecast
Issued by NWS Jacksonville, FL

Home | Current Version | Previous Version | Text Only | Print | Product List | Glossary On
Versions: 1 2 3 4 5 6 7 8 9 10 11 12 13 14 15 16 17 18 19
000
FTUS42 KJAX 301900 AAA
TAFSSI
TAF AMD
KSSI 301942Z 3020/3118 36007KT P6SM VCSH BKN025 OVC035
      TEMPO 3020/3021 5SM -SHRA FEW015 OVC025
     FM302200 05006KT P6SM FEW035 SCT045 BKN060
     FM310200 10005KT P6SM SCT025
     FM311400 12007KT P6SM SCT070=

USA.gov is the U.S. government's official web portal to all federal, state and local government web resources and services.